| time (UTC) | temp F | wind direction | speed MPH | gust MPH | rain 1hr in | rain 24hr in | rain mn in | humidity % | barometer mb |
| 20260508005016 | 42 | 293 | 1.0 | 4.0 | 0.00 | 0.03 | 0.00 | 57 | 1008.8 |
| 20260508004516 | 41 | 315 | 1.0 | 6.0 | 0.00 | 0.03 | 0.00 | 58 | 1008.7 |
| 20260508004017 | 42 | 0.0 | 1.0 | 0.00 | 0.03 | 0.00 | 60 | 1008.6 | |
| 20260508003517 | 42 | 0.0 | 1.0 | 0.00 | 0.03 | 0.00 | 56 | 1008.6 | |
| 20260508003016 | 43 | 0.0 | 2.0 | 0.00 | 0.03 | 0.00 | 55 | 1008.6 | |
| 20260508002537 | 43 | 315 | 1.0 | 4.0 | 0.00 | 0.04 | 0.00 | 54 | 1008.6 |
| 20260508002017 | 44 | 315 | 1.0 | 3.0 | 0.00 | 0.04 | 0.00 | 53 | 1008.5 |
| 20260508001517 | 44 | 0.0 | 2.0 | 0.00 | 0.04 | 0.00 | 52 | 1008.4 | |
| 20260508001016 | 44 | 315 | 2.0 | 7.0 | 0.00 | 0.05 | 0.00 | 51 | 1008.4 |
| 20260508000516 | 45 | 315 | 3.0 | 6.0 | 0.00 | 0.05 | 0.00 | 50 | 1008.3 |
| 20260508000017 | 45 | 315 | 3.0 | 7.0 | 0.00 | 0.05 | 0.00 | 49 | 1008.3 |
| 20260507235517 | 45 | 315 | 3.0 | 9.0 | 0.00 | 0.05 | 0.00 | 50 | 1008.3 |
| 20260507235016 | 46 | 315 | 2.0 | 10.0 | 0.00 | 0.05 | 0.00 | 49 | 1008.3 |
| 20260507234516 | 46 | 315 | 5.0 | 13.0 | 0.00 | 0.06 | 0.00 | 48 | 1008.2 |
| 20260507234017 | 46 | 315 | 5.0 | 9.0 | 0.00 | 0.06 | 0.00 | 48 | 1008.1 |
| 20260507233517 | 46 | 315 | 3.0 | 9.0 | 0.00 | 0.06 | 0.00 | 47 | 1008.0 |
| 20260507233016 | 47 | 315 | 4.0 | 9.0 | 0.00 | 0.06 | 0.00 | 47 | 1008.0 |
| 20260507232517 | 47 | 315 | 6.0 | 13.0 | 0.00 | 0.06 | 0.00 | 46 | 1008.0 |
| 20260507232017 | 47 | 315 | 5.0 | 11.0 | 0.00 | 0.06 | 0.00 | 47 | 1007.9 |
| 20260507231516 | 48 | 315 | 6.0 | 13.0 | 0.00 | 0.06 | 0.00 | 46 | 1007.9 |
| 20260507231017 | 48 | 315 | 8.0 | 17.0 | 0.00 | 0.06 | 0.00 | 44 | 1007.8 |
| 20260507230517 | 48 | 315 | 6.0 | 12.0 | 0.00 | 0.06 | 0.00 | 46 | 1007.9 |
| 20260507230017 | 49 | 315 | 3.0 | 8.0 | 0.00 | 0.06 | 0.00 | 47 | 1007.8 |
| 20260507225516 | 49 | 315 | 4.0 | 10.0 | 0.00 | 0.06 | 0.00 | 45 | 1007.8 |
| 20260507225017 | 48 | 315 | 2.0 | 6.0 | 0.00 | 0.06 | 0.00 | 46 | 1007.8 |
| 20260507224517 | 48 | 315 | 5.0 | 13.0 | 0.00 | 0.06 | 0.00 | 45 | 1007.8 |
| 20260507224016 | 48 | 315 | 6.0 | 11.0 | 0.00 | 0.06 | 0.00 | 44 | 1007.8 |
| 20260507223557 | 49 | 315 | 7.0 | 17.0 | 0.00 | 0.07 | 0.00 | 45 | 1007.7 |
| 20260507223037 | 50 | 315 | 4.0 | 9.0 | 0.00 | 0.07 | 0.00 | 44 | 1007.7 |
| 20260507222517 | 51 | 315 | 3.0 | 11.0 | 0.00 | 0.07 | 0.00 | 43 | 1007.6 |
| 20260507222017 | 50 | 315 | 2.0 | 7.0 | 0.00 | 0.08 | 0.00 | 46 | 1007.5 |
| 20260507221517 | 49 | 293 | 3.0 | 8.0 | 0.00 | 0.08 | 0.00 | 45 | 1007.6 |
| 20260507221017 | 49 | 315 | 3.0 | 10.0 | 0.00 | 0.08 | 0.00 | 45 | 1007.6 |
| 20260507220517 | 50 | 315 | 6.0 | 13.0 | 0.00 | 0.08 | 0.00 | 44 | 1007.6 |
| 20260507220017 | 51 | 315 | 4.0 | 13.0 | 0.00 | 0.08 | 0.00 | 43 | 1007.5 |
| 20260507215516 | 50 | 315 | 5.0 | 13.0 | 0.00 | 0.08 | 0.00 | 45 | 1007.6 |
| 20260507215017 | 51 | 315 | 4.0 | 10.0 | 0.00 | 0.08 | 0.00 | 43 | 1007.6 |
| 20260507214517 | 50 | 293 | 3.0 | 12.0 | 0.00 | 0.08 | 0.00 | 43 | 1007.6 |
| 20260507214017 | 51 | 315 | 3.0 | 7.0 | 0.00 | 0.08 | 0.00 | 45 | 1007.6 |
| 20260507213516 | 51 | 315 | 4.0 | 11.0 | 0.00 | 0.08 | 0.00 | 44 | 1007.6 |
| 20260507213058 | 52 | 315 | 3.0 | 11.0 | 0.00 | 0.08 | 0.00 | 43 | 1007.6 |
| 20260507212517 | 52 | 315 | 4.0 | 13.0 | 0.00 | 0.08 | 0.00 | 42 | 1007.5 |
| 20260507212157 | 52 | 315 | 5.0 | 11.0 | 0.00 | 0.09 | 0.00 | 42 | 1007.6 |
| 20260507211517 | 52 | 315 | 4.0 | 12.0 | 0.00 | 0.09 | 0.00 | 44 | 1007.5 |
| 20260507211036 | 52 | 315 | 5.0 | 12.0 | 0.00 | 0.09 | 0.00 | 43 | 1007.6 |
| 20260507210516 | 52 | 315 | 3.0 | 14.0 | 0.00 | 0.09 | 0.00 | 44 | 1007.5 |
| 20260507210017 | 52 | 315 | 4.0 | 10.0 | 0.00 | 0.09 | 0.00 | 44 | 1007.5 |
| 20260507205517 | 53 | 315 | 7.0 | 17.0 | 0.00 | 0.09 | 0.00 | 42 | 1007.5 |
| 20260507205016 | 53 | 315 | 3.0 | 8.0 | 0.00 | 0.09 | 0.00 | 45 | 1007.5 |
| 20260507204517 | 52 | 293 | 3.0 | 10.0 | 0.00 | 0.09 | 0.00 | 45 | 1007.4 |
| 20260507204017 | 51 | 315 | 4.0 | 12.0 | 0.00 | 0.09 | 0.00 | 48 | 1007.4 |
| 20260507203536 | 50 | 315 | 6.0 | 12.0 | 0.00 | 0.09 | 0.00 | 47 | 1007.5 |
| 20260507203017 | 51 | 315 | 2.0 | 7.0 | 0.00 | 0.09 | 0.00 | 48 | 1007.5 |
| 20260507202557 | 51 | 315 | 5.0 | 16.0 | 0.00 | 0.09 | 0.00 | 45 | 1007.4 |
| 20260507202017 | 52 | 315 | 5.0 | 13.0 | 0.00 | 0.09 | 0.00 | 46 | 1007.4 |
| 20260507201516 | 53 | 315 | 4.0 | 11.0 | 0.00 | 0.10 | 0.00 | 44 | 1007.4 |
| 20260507201037 | 53 | 315 | 6.0 | 18.0 | 0.00 | 0.10 | 0.00 | 46 | 1007.4 |
| 20260507200517 | 53 | 315 | 4.0 | 12.0 | 0.00 | 0.10 | 0.00 | 45 | 1007.5 |
| 20260507200017 | 53 | 180 | 4.0 | 10.0 | 0.00 | 0.11 | 0.00 | 43 | 1007.5 |
| 20260507195517 | 53 | 315 | 3.0 | 10.0 | 0.00 | 0.12 | 0.00 | 46 | 1007.5 |
| 20260507195017 | 53 | 338 | 3.0 | 10.0 | 0.00 | 0.13 | 0.00 | 47 | 1007.5 |
| 20260507194537 | 52 | 315 | 8.0 | 17.0 | 0.00 | 0.13 | 0.00 | 44 | 1007.6 |
| 20260507194017 | 53 | 315 | 8.0 | 15.0 | 0.00 | 0.13 | 0.00 | 42 | 1007.6 |
| 20260507193516 | 53 | 270 | 3.0 | 11.0 | 0.00 | 0.14 | 0.00 | 44 | 1007.6 |
| 20260507193017 | 52 | 315 | 4.0 | 12.0 | 0.00 | 0.14 | 0.00 | 46 | 1007.7 |
| 20260507192517 | 52 | 293 | 5.0 | 17.0 | 0.00 | 0.15 | 0.00 | 43 | 1007.7 |
| 20260507192037 | 53 | 225 | 4.0 | 11.0 | 0.00 | 0.15 | 0.00 | 44 | 1007.7 |
| 20260507191517 | 53 | 315 | 3.0 | 10.0 | 0.00 | 0.16 | 0.00 | 44 | 1007.8 |
| 20260507191037 | 53 | 315 | 6.0 | 14.0 | 0.00 | 0.17 | 0.00 | 46 | 1007.9 |
| 20260507190516 | 53 | 315 | 7.0 | 20.0 | 0.00 | 0.17 | 0.00 | 43 | 1007.9 |
| 20260507190016 | 52 | 315 | 2.0 | 7.0 | 0.00 | 0.18 | 0.00 | 48 | 1007.8 |
| 20260507185517 | 52 | 315 | 7.0 | 14.0 | 0.00 | 0.19 | 0.00 | 43 | 1007.9 |
| 20260507185017 | 52 | 315 | 6.0 | 13.0 | 0.00 | 0.19 | 0.00 | 49 | 1007.9 |
| 20260507184557 | 51 | 315 | 5.0 | 13.0 | 0.00 | 0.19 | 0.00 | 52 | 1008.0 |
| 20260507184017 | 50 | 315 | 4.0 | 11.0 | 0.00 | 0.19 | 0.00 | 48 | 1008.0 |
| 20260507183517 | 50 | 315 | 6.0 | 13.0 | 0.00 | 0.19 | 0.00 | 47 | 1008.3 |
| 20260507183016 | 51 | 315 | 6.0 | 13.0 | 0.00 | 0.20 | 0.00 | 45 | 1008.2 |
| 20260507182516 | 51 | 315 | 3.0 | 10.0 | 0.00 | 0.20 | 0.00 | 48 | 1008.1 |
| 20260507182037 | 52 | 315 | 6.0 | 15.0 | 0.00 | 0.20 | 0.00 | 48 | 1008.2 |
| 20260507181517 | 52 | 315 | 7.0 | 18.0 | 0.00 | 0.21 | 0.00 | 47 | 1008.2 |
| 20260507181017 | 53 | 315 | 4.0 | 15.0 | 0.00 | 0.21 | 0.00 | 46 | 1008.2 |
| 20260507180517 | 51 | 45 | 2.0 | 8.0 | 0.00 | 0.21 | 0.00 | 51 | 1008.2 |
| 20260507180037 | 50 | 315 | 6.0 | 16.0 | 0.00 | 0.21 | 0.00 | 48 | 1008.3 |
| 20260507175517 | 51 | 315 | 6.0 | 14.0 | 0.00 | 0.22 | 0.00 | 46 | 1008.3 |
| 20260507175017 | 51 | 293 | 4.0 | 11.0 | 0.00 | 0.23 | 0.00 | 48 | 1008.2 |
| 20260507174537 | 52 | 270 | 3.0 | 11.0 | 0.00 | 0.24 | 0.00 | 48 | 1008.3 |
| 20260507174037 | 52 | 315 | 5.0 | 12.0 | 0.00 | 0.26 | 0.00 | 47 | 1008.3 |
| 20260507173517 | 52 | 270 | 2.0 | 7.0 | 0.00 | 0.30 | 0.00 | 51 | 1008.3 |
| 20260507173017 | 51 | 293 | 3.0 | 10.0 | 0.00 | 0.32 | 0.00 | 48 | 1008.5 |
| 20260507172517 | 51 | 315 | 7.0 | 19.0 | 0.00 | 0.33 | 0.00 | 48 | 1008.4 |
| 20260507172037 | 51 | 225 | 3.0 | 10.0 | 0.00 | 0.35 | 0.00 | 49 | 1008.2 |
| 20260507171516 | 50 | 315 | 4.0 | 9.0 | 0.00 | 0.36 | 0.00 | 49 | 1008.5 |
| 20260507171016 | 49 | 315 | 5.0 | 11.0 | 0.00 | 0.38 | 0.00 | 49 | 1008.5 |
| 20260507170517 | 49 | 315 | 6.0 | 14.0 | 0.00 | 0.40 | 0.00 | 50 | 1008.6 |
| 20260507170037 | 50 | 315 | 7.0 | 19.0 | 0.00 | 0.41 | 0.00 | 48 | 1008.7 |
| 20260507165517 | 50 | 180 | 2.0 | 7.0 | 0.00 | 0.42 | 0.00 | 55 | 1008.7 |
| 20260507165016 | 49 | 315 | 6.0 | 14.0 | 0.00 | 0.44 | 0.00 | 53 | 1008.8 |
| 20260507164517 | 49 | 315 | 9.0 | 18.0 | 0.00 | 0.45 | 0.00 | 51 | 1008.9 |
| 20260507164017 | 49 | 315 | 5.0 | 13.0 | 0.00 | 0.47 | 0.00 | 52 | 1009.0 |
| 20260507163517 | 49 | 315 | 8.0 | 20.0 | 0.00 | 0.50 | 0.00 | 51 | 1009.0 |
| 20260507163016 | 49 | 315 | 3.0 | 11.0 | 0.00 | 0.51 | 0.00 | 57 | 1009.0 |
| 20260507162517 | 49 | 338 | 4.0 | 12.0 | 0.00 | 0.53 | 0.00 | 56 | 1009.1 |
| 20260507162017 | 48 | 315 | 4.0 | 10.0 | 0.00 | 0.54 | 0.00 | 56 | 1009.2 |
| 20260507161517 | 48 | 315 | 5.0 | 14.0 | 0.00 | 0.57 | 0.00 | 58 | 1009.3 |
| 20260507161017 | 48 | 293 | 2.0 | 9.0 | 0.00 | 0.58 | 0.00 | 60 | 1009.2 |
| 20260507160517 | 48 | 315 | 2.0 | 7.0 | 0.00 | 0.64 | 0.00 | 60 | 1009.3 |
| 20260507160017 | 47 | 315 | 5.0 | 10.0 | 0.00 | 0.64 | 0.00 | 60 | 1009.5 |
| 20260507155517 | 47 | 248 | 2.0 | 9.0 | 0.00 | 0.65 | 0.00 | 58 | 1009.5 |
| 20260507155017 | 47 | 315 | 7.0 | 21.0 | 0.00 | 0.66 | 0.00 | 60 | 1009.5 |
| 20260507154537 | 47 | 315 | 7.0 | 12.0 | 0.00 | 0.67 | 0.00 | 60 | 1009.5 |
| 20260507154017 | 47 | 315 | 4.0 | 12.0 | 0.00 | 0.68 | 0.00 | 60 | 1009.5 |
| 20260507153517 | 46 | 315 | 3.0 | 8.0 | 0.00 | 0.68 | 0.00 | 64 | 1009.6 |
| 20260507153017 | 47 | 315 | 5.0 | 12.0 | 0.00 | 0.69 | 0.00 | 60 | 1009.8 |
| 20260507152517 | 47 | 315 | 4.0 | 9.0 | 0.00 | 0.70 | 0.00 | 60 | 1009.7 |
| 20260507152016 | 46 | 315 | 4.0 | 12.0 | 0.00 | 0.70 | 0.00 | 60 | 1009.6 |
| 20260507151517 | 46 | 315 | 4.0 | 9.0 | 0.00 | 0.70 | 0.00 | 62 | 1009.7 |
| 20260507151017 | 46 | 315 | 4.0 | 11.0 | 0.00 | 0.71 | 0.00 | 60 | 1009.7 |
| 20260507150517 | 46 | 315 | 7.0 | 22.0 | 0.00 | 0.71 | 0.00 | 59 | 1009.6 |
| 20260507150016 | 46 | 315 | 6.0 | 16.0 | 0.00 | 0.71 | 0.00 | 58 | 1009.8 |
| 20260507145517 | 45 | 315 | 5.0 | 18.0 | 0.00 | 0.72 | 0.00 | 63 | 1009.5 |
| 20260507145017 | 45 | 315 | 6.0 | 13.0 | 0.00 | 0.72 | 0.00 | 62 | 1009.5 |
| 20260507144517 | 45 | 315 | 5.0 | 12.0 | 0.00 | 0.73 | 0.00 | 65 | 1009.5 |
| 20260507144017 | 44 | 315 | 6.0 | 13.0 | 0.00 | 0.73 | 0.00 | 66 | 1009.6 |
| 20260507143517 | 44 | 315 | 6.0 | 12.0 | 0.00 | 0.74 | 0.00 | 63 | 1009.5 |
| 20260507143017 | 44 | 315 | 7.0 | 17.0 | 0.00 | 0.74 | 0.00 | 65 | 1009.6 |
| 20260507142517 | 44 | 315 | 8.0 | 18.0 | 0.00 | 0.74 | 0.00 | 63 | 1009.7 |
| 20260507142017 | 44 | 315 | 6.0 | 16.0 | 0.00 | 0.75 | 0.00 | 71 | 1009.7 |
| 20260507141517 | 44 | 315 | 4.0 | 15.0 | 0.00 | 0.75 | 0.00 | 74 | 1009.6 |
| 20260507141057 | 43 | 315 | 4.0 | 16.0 | 0.00 | 0.75 | 0.00 | 76 | 1009.5 |
| 20260507140517 | 43 | 315 | 4.0 | 12.0 | 0.00 | 0.76 | 0.00 | 80 | 1009.5 |
| 20260507140017 | 42 | 315 | 3.0 | 9.0 | 0.00 | 0.76 | 0.00 | 80 | 1009.3 |
| 20260507135517 | 42 | 315 | 3.0 | 9.0 | 0.00 | 0.77 | 0.00 | 81 | 1009.3 |
| 20260507135017 | 41 | 338 | 2.0 | 7.0 | 0.00 | 0.77 | 0.00 | 84 | 1009.5 |
| 20260507134517 | 41 | 315 | 3.0 | 7.0 | 0.00 | 0.77 | 0.00 | 84 | 1009.5 |
| 20260507134017 | 40 | 315 | 3.0 | 6.0 | 0.00 | 0.77 | 0.00 | 86 | 1009.6 |
| 20260507133517 | 40 | 315 | 4.0 | 10.0 | 0.00 | 0.77 | 0.00 | 85 | 1009.5 |
| 20260507133017 | 40 | 270 | 3.0 | 8.0 | 0.00 | 0.78 | 0.00 | 85 | 1009.6 |
| 20260507132517 | 40 | 293 | 2.0 | 9.0 | 0.00 | 0.78 | 0.00 | 88 | 1009.6 |
| 20260507132037 | 40 | 315 | 2.0 | 6.0 | 0.00 | 0.78 | 0.00 | 90 | 1009.6 |
| 20260507131536 | 40 | 315 | 2.0 | 6.0 | 0.00 | 0.78 | 0.00 | 90 | 1009.5 |
| 20260507131016 | 40 | 293 | 3.0 | 10.0 | 0.00 | 0.78 | 0.00 | 91 | 1009.5 |
| 20260507130517 | 40 | 315 | 2.0 | 9.0 | 0.00 | 0.78 | 0.00 | 91 | 1009.5 |
| 20260507130017 | 40 | 315 | 3.0 | 6.0 | 0.00 | 0.78 | 0.00 | 93 | 1009.5 |
| 20260507125517 | 39 | 315 | 5.0 | 14.0 | 0.00 | 0.78 | 0.00 | 94 | 1009.4 |
| 20260507125017 | 39 | 315 | 4.0 | 11.0 | 0.00 | 0.78 | 0.00 | 97 | 1009.4 |
| 20260507124517 | 40 | 315 | 3.0 | 8.0 | 0.00 | 0.78 | 0.00 | 97 | 1009.2 |
| 20260507124017 | 40 | 315 | 2.0 | 9.0 | 0.00 | 0.78 | 0.00 | 98 | 1009.3 |
| 20260507123517 | 40 | 315 | 4.0 | 10.0 | 0.00 | 0.78 | 0.00 | 98 | 1009.2 |
| 20260507123017 | 40 | 315 | 4.0 | 12.0 | 0.00 | 0.78 | 0.00 | 98 | 1009.2 |
| 20260507122517 | 41 | 315 | 3.0 | 12.0 | 0.00 | 0.79 | 0.00 | 98 | 1009.0 |
| 20260507122017 | 40 | 315 | 2.0 | 7.0 | 0.00 | 0.79 | 0.00 | 99 | 1008.9 |
| 20260507121517 | 40 | 293 | 3.0 | 9.0 | 0.00 | 0.79 | 0.00 | 99 | 1008.9 |
| 20260507121016 | 40 | 315 | 3.0 | 11.0 | 0.00 | 0.79 | 0.00 | 99 | 1008.8 |
| 20260507120516 | 40 | 315 | 2.0 | 10.0 | 0.00 | 0.79 | 0.00 | 99 | 1008.7 |
| 20260507120017 | 41 | 315 | 1.0 | 7.0 | 0.00 | 0.79 | 0.00 | 99 | 1008.8 |
| 20260507115517 | 40 | 315 | 2.0 | 6.0 | 0.00 | 0.79 | 0.00 | 100 | 1008.8 |
| 20260507115017 | 40 | 293 | 2.0 | 5.0 | 0.00 | 0.79 | 0.00 | 100 | 1008.9 |
| 20260507114517 | 40 | 293 | 1.0 | 2.0 | 0.00 | 0.79 | 0.00 | 100 | 1008.9 |
| 20260507114017 | 39 | 315 | 2.0 | 7.0 | 0.00 | 0.79 | 0.00 | 100 | 1008.9 |
| 20260507113516 | 40 | 315 | 3.0 | 9.0 | 0.00 | 0.79 | 0.00 | 100 | 1008.9 |
| 20260507113017 | 40 | 315 | 4.0 | 10.0 | 0.00 | 0.79 | 0.00 | 100 | 1008.8 |
| 20260507112517 | 40 | 293 | 3.0 | 11.0 | 0.00 | 0.79 | 0.00 | 100 | 1008.9 |
| 20260507112017 | 40 | 315 | 3.0 | 11.0 | 0.00 | 0.79 | 0.00 | 100 | 1008.9 |
| 20260507111517 | 40 | 315 | 3.0 | 7.0 | 0.00 | 0.79 | 0.00 | 100 | 1008.9 |
| 20260507111037 | 40 | 315 | 2.0 | 8.0 | 0.00 | 0.79 | 0.00 | 100 | 1009.0 |
| 20260507110517 | 40 | 270 | 2.0 | 10.0 | 0.00 | 0.79 | 0.00 | 100 | 1008.9 |
| 20260507110017 | 40 | 315 | 2.0 | 4.0 | 0.00 | 0.79 | 0.00 | 100 | 1008.9 |
| 20260507105516 | 40 | 293 | 1.0 | 6.0 | 0.00 | 0.79 | 0.00 | 100 | 1008.9 |
| 20260507105017 | 40 | 293 | 1.0 | 3.0 | 0.00 | 0.79 | 0.00 | 100 | 1008.9 |
| 20260507104517 | 40 | 0.0 | 2.0 | 0.00 | 0.79 | 0.00 | 100 | 1008.8 | |
| 20260507104017 | 40 | 0.0 | 1.0 | 0.00 | 0.79 | 0.00 | 100 | 1008.8 | |
| 20260507103517 | 40 | 315 | 1.0 | 3.0 | 0.00 | 0.79 | 0.00 | 100 | 1008.8 |
| 20260507103017 | 40 | 315 | 1.0 | 4.0 | 0.00 | 0.79 | 0.00 | 100 | 1008.9 |
| 20260507102517 | 40 | 0.0 | 0.0 | 0.00 | 0.79 | 0.00 | 100 | 1008.9 | |
| 20260507102017 | 40 | 0.0 | 3.0 | 0.00 | 0.79 | 0.00 | 100 | 1008.8 | |
| 20260507101517 | 40 | 0.0 | 1.0 | 0.00 | 0.79 | 0.00 | 100 | 1008.7 | |
| 20260507101037 | 40 | 0.0 | 0.0 | 0.00 | 0.79 | 0.00 | 100 | 1008.8 | |
| 20260507100517 | 40 | 0.0 | 1.0 | 0.00 | 0.79 | 0.00 | 100 | 1008.7 | |
| 20260507100017 | 40 | 0.0 | 1.0 | 0.00 | 0.79 | 0.00 | 100 | 1008.8 | |
| 20260507095517 | 40 | 0.0 | 1.0 | 0.00 | 0.79 | 0.00 | 100 | 1008.7 | |
| 20260507095017 | 40 | 0.0 | 0.0 | 0.00 | 0.79 | 0.00 | 100 | 1008.7 | |
| 20260507094517 | 40 | 0.0 | 0.0 | 0.00 | 0.79 | 0.00 | 100 | 1008.6 | |
| 20260507094017 | 40 | 0.0 | 0.0 | 0.00 | 0.79 | 0.00 | 100 | 1008.7 | |
| 20260507093517 | 40 | 0.0 | 0.0 | 0.00 | 0.79 | 0.00 | 100 | 1008.7 | |
| 20260507093017 | 40 | 0.0 | 2.0 | 0.00 | 0.79 | 0.00 | 100 | 1008.8 | |
| 20260507092517 | 40 | 0.0 | 0.0 | 0.00 | 0.79 | 0.00 | 100 | 1008.8 | |
| 20260507092017 | 40 | 0.0 | 1.0 | 0.00 | 0.79 | 0.00 | 100 | 1008.9 | |
| 20260507091517 | 40 | 293 | 1.0 | 2.0 | 0.00 | 0.79 | 0.00 | 100 | 1009.0 |
| 20260507091017 | 40 | 0.0 | 1.0 | 0.00 | 0.79 | 0.00 | 100 | 1009.0 | |
| 20260507090517 | 40 | 293 | 1.0 | 1.0 | 0.00 | 0.79 | 0.00 | 100 | 1008.9 |
| 20260507090017 | 40 | 0.0 | 1.0 | 0.00 | 0.79 | 0.00 | 100 | 1009.0 | |
| 20260507085516 | 40 | 0.0 | 2.0 | 0.00 | 0.79 | 0.00 | 100 | 1009.2 | |
| 20260507085037 | 40 | 0.0 | 2.0 | 0.00 | 0.79 | 0.00 | 100 | 1009.2 | |
| 20260507084517 | 40 | 0.0 | 2.0 | 0.00 | 0.79 | 0.00 | 100 | 1009.4 | |
| 20260507084017 | 40 | 293 | 1.0 | 2.0 | 0.00 | 0.79 | 0.00 | 100 | 1009.4 |
| 20260507083537 | 40 | 0.0 | 1.0 | 0.00 | 0.79 | 0.00 | 100 | 1009.3 | |
| 20260507083017 | 40 | 0.0 | 1.0 | 0.00 | 0.79 | 0.00 | 100 | 1009.2 | |
| 20260507082517 | 40 | 0.0 | 1.0 | 0.00 | 0.79 | 0.00 | 100 | 1009.1 | |
| 20260507082017 | 40 | 0.0 | 2.0 | 0.00 | 0.79 | 0.00 | 100 | 1009.1 | |
| 20260507081517 | 40 | 0.0 | 2.0 | 0.00 | 0.79 | 0.00 | 100 | 1009.1 | |
| 20260507081037 | 40 | 0.0 | 2.0 | 0.00 | 0.79 | 0.00 | 100 | 1009.2 | |
| 20260507080517 | 40 | 293 | 1.0 | 3.0 | 0.00 | 0.79 | 0.00 | 100 | 1009.3 |
| 20260507080017 | 40 | 0.0 | 0.0 | 0.00 | 0.79 | 0.00 | 100 | 1009.3 | |
| 20260507075557 | 40 | 0.0 | 0.0 | 0.00 | 0.79 | 0.00 | 100 | 1009.3 | |
| 20260507075017 | 40 | 0.0 | 1.0 | 0.00 | 0.79 | 0.00 | 100 | 1009.3 | |
| 20260507074517 | 40 | 0.0 | 2.0 | 0.00 | 0.79 | 0.00 | 100 | 1009.2 | |
| 20260507074017 | 40 | 0.0 | 1.0 | 0.00 | 0.79 | 0.00 | 100 | 1009.2 | |
| 20260507073557 | 40 | 0.0 | 1.0 | 0.00 | 0.79 | 0.00 | 100 | 1009.1 | |
| 20260507073017 | 40 | 0.0 | 0.0 | 0.00 | 0.79 | 0.00 | 100 | 1009.2 | |
| 20260507072517 | 40 | 0.0 | 1.0 | 0.00 | 0.79 | 0.00 | 100 | 1009.0 | |
| 20260507072037 | 40 | 0.0 | 0.0 | 0.00 | 0.79 | 0.00 | 100 | 1008.9 | |
| 20260507071517 | 40 | 0.0 | 0.0 | 0.00 | 0.79 | 0.00 | 100 | 1008.9 | |
| 20260507071017 | 40 | 0.0 | 0.0 | 0.00 | 0.79 | 0.00 | 100 | 1008.8 | |
| 20260507070517 | 40 | 0.0 | 0.0 | 0.00 | 0.79 | 0.00 | 100 | 1008.8 | |
| 20260507070017 | 40 | 0.0 | 0.0 | 0.00 | 0.79 | 0.00 | 100 | 1008.8 | |
| 20260507065537 | 40 | 0.0 | 0.0 | 0.00 | 0.79 | 0.00 | 100 | 1008.7 | |
| 20260507065017 | 40 | 0.0 | 1.0 | 0.00 | 0.79 | 0.00 | 100 | 1008.7 | |
| 20260507064537 | 40 | 0.0 | 0.0 | 0.00 | 0.79 | 0.00 | 100 | 1008.7 | |
| 20260507064017 | 40 | 0.0 | 0.0 | 0.00 | 0.79 | 0.00 | 100 | 1008.8 | |
| 20260507063517 | 40 | 0.0 | 0.0 | 0.00 | 0.79 | 0.00 | 100 | 1008.6 | |
| 20260507063017 | 40 | 0.0 | 0.0 | 0.00 | 0.79 | 0.00 | 100 | 1008.6 | |
| 20260507062537 | 40 | 0.0 | 0.0 | 0.00 | 0.79 | 0.00 | 100 | 1008.8 | |
| 20260507062019 | 40 | 0.0 | 0.0 | 0.00 | 0.79 | 0.00 | 100 | 1008.9 | |
| 20260507061619 | 40 | 0.0 | 1.0 | 0.00 | 0.79 | 0.00 | 100 | 1008.8 | |
| 20260507061019 | 40 | 0.0 | 1.0 | 0.00 | 0.79 | 0.00 | 100 | 1008.7 | |
| 20260507060539 | 40 | 0.0 | 1.0 | 0.00 | 0.79 | 0.00 | 100 | 1008.7 | |
| 20260507060019 | 40 | 0.0 | 1.0 | 0.00 | 0.79 | 0.00 | 100 | 1008.7 | |
| 20260507055517 | 40 | 0.0 | 1.0 | 0.00 | 0.79 | 0.00 | 100 | 1008.7 | |
| 20260507055037 | 40 | 0.0 | 1.0 | 0.00 | 0.79 | 0.00 | 100 | 1008.8 | |
| 20260507054537 | 40 | 0.0 | 1.0 | 0.00 | 0.79 | 0.00 | 100 | 1009.1 | |
| 20260507054037 | 39 | 0.0 | 1.0 | 0.00 | 0.79 | 0.00 | 100 | 1008.9 | |
| 20260507053517 | 39 | 0.0 | 1.0 | 0.00 | 0.79 | 0.00 | 100 | 1009.2 | |
| 20260507053017 | 39 | 0.0 | 1.0 | 0.00 | 0.79 | 0.00 | 100 | 1009.3 | |
| 20260507052517 | 39 | 0.0 | 2.0 | 0.00 | 0.79 | 0.00 | 100 | 1009.5 | |
| 20260507052037 | 39 | 293 | 1.0 | 3.0 | 0.00 | 0.79 | 0.00 | 100 | 1009.4 |
| 20260507051517 | 39 | 0.0 | 2.0 | 0.00 | 0.79 | 0.00 | 100 | 1009.2 | |
| 20260507051017 | 39 | 315 | 1.0 | 3.0 | 0.00 | 0.80 | 0.00 | 100 | 1009.5 |
| 20260507050517 | 39 | 315 | 1.0 | 4.0 | 0.00 | 0.81 | 0.00 | 100 | 1009.4 |
| 20260507050017 | 39 | 315 | 2.0 | 6.0 | 0.00 | 0.83 | 0.00 | 100 | 1009.3 |
| 20260507045517 | 39 | 315 | 1.0 | 5.0 | 0.00 | 0.83 | 0.00 | 100 | 1009.0 |
| 20260507045017 | 39 | 0.0 | 1.0 | 0.00 | 0.83 | 0.00 | 100 | 1009.1 | |
| 20260507044517 | 39 | 0.0 | 2.0 | 0.00 | 0.83 | 0.00 | 100 | 1009.4 | |
| 20260507044017 | 39 | 293 | 1.0 | 3.0 | 0.00 | 0.83 | 0.00 | 100 | 1009.5 |
| 20260507043537 | 39 | 315 | 1.0 | 3.0 | 0.00 | 0.83 | 0.00 | 100 | 1009.3 |
| 20260507043017 | 40 | 315 | 1.0 | 3.0 | 0.00 | 0.83 | 0.00 | 100 | 1009.1 |
| 20260507042517 | 40 | 0.0 | 1.0 | 0.00 | 0.83 | 0.00 | 100 | 1009.0 | |
| 20260507042017 | 40 | 0.0 | 0.0 | 0.00 | 0.83 | 0.00 | 100 | 1008.8 | |
| 20260507041517 | 40 | 0.0 | 2.0 | 0.00 | 0.83 | 0.00 | 100 | 1008.7 | |
| 20260507041017 | 40 | 0.0 | 1.0 | 0.00 | 0.83 | 0.00 | 100 | 1008.9 | |
| 20260507040517 | 40 | 0.0 | 0.0 | 0.00 | 0.83 | 0.00 | 100 | 1009.0 | |
| 20260507040017 | 40 | 0.0 | 0.0 | 0.00 | 0.83 | 0.83 | 100 | 1009.0 | |
| 20260507035517 | 40 | 0.0 | 0.0 | 0.00 | 0.83 | 0.83 | 100 | 1009.1 | |
| 20260507035017 | 40 | 0.0 | 1.0 | 0.00 | 0.83 | 0.83 | 100 | 1009.2 | |
| 20260507034511 | 40 | 0.0 | 0.0 | 0.00 | 0.83 | 0.83 | 100 | 1009.0 | |
| 20260507034017 | 40 | 0.0 | 0.0 | 0.00 | 0.83 | 0.83 | 100 | 1008.9 | |
| 20260507033517 | 40 | 0.0 | 0.0 | 0.00 | 0.83 | 0.83 | 100 | 1008.9 | |
| 20260507033017 | 40 | 0.0 | 1.0 | 0.00 | 0.83 | 0.83 | 100 | 1009.0 | |
| 20260507032517 | 40 | 0.0 | 1.0 | 0.00 | 0.83 | 0.83 | 100 | 1009.1 | |
| 20260507032037 | 40 | 0.0 | 0.0 | 0.00 | 0.83 | 0.83 | 100 | 1009.1 | |
| 20260507031517 | 40 | 0.0 | 0.0 | 0.00 | 0.83 | 0.83 | 100 | 1009.1 | |
| 20260507031057 | 40 | 0.0 | 0.0 | 0.00 | 0.83 | 0.83 | 100 | 1009.3 | |
| 20260507030517 | 40 | 0.0 | 2.0 | 0.00 | 0.83 | 0.83 | 100 | 1009.2 | |
| 20260507030017 | 40 | 0.0 | 0.0 | 0.00 | 0.83 | 0.83 | 100 | 1009.2 | |
| 20260507025517 | 40 | 0.0 | 1.0 | 0.01 | 0.83 | 0.83 | 100 | 1009.3 | |
| 20260507025017 | 40 | 0.0 | 1.0 | 0.01 | 0.83 | 0.83 | 100 | 1009.3 | |
| 20260507024517 | 40 | 0.0 | 1.0 | 0.01 | 0.83 | 0.83 | 100 | 1009.3 | |
| 20260507024017 | 40 | 0.0 | 1.0 | 0.01 | 0.83 | 0.83 | 100 | 1009.3 | |
| 20260507023517 | 40 | 315 | 1.0 | 2.0 | 0.01 | 0.83 | 0.83 | 100 | 1009.3 |
| 20260507023017 | 40 | 0.0 | 2.0 | 0.01 | 0.83 | 0.83 | 100 | 1009.4 | |
| 20260507022517 | 40 | 315 | 1.0 | 4.0 | 0.01 | 0.83 | 0.83 | 100 | 1009.3 |
| 20260507022017 | 40 | 315 | 1.0 | 3.0 | 0.01 | 0.83 | 0.83 | 100 | 1009.5 |
| 20260507021517 | 40 | 0.0 | 2.0 | 0.02 | 0.83 | 0.83 | 100 | 1009.4 | |
| 20260507021017 | 40 | 293 | 1.0 | 2.0 | 0.02 | 0.83 | 0.83 | 100 | 1009.4 |
| 20260507020517 | 40 | 0.0 | 2.0 | 0.02 | 0.83 | 0.83 | 100 | 1009.4 | |
| 20260507020017 | 40 | 0.0 | 1.0 | 0.03 | 0.83 | 0.83 | 100 | 1009.4 | |
| 20260507015517 | 40 | 0.0 | 2.0 | 0.02 | 0.82 | 0.82 | 100 | 1009.5 | |
| 20260507015017 | 40 | 0.0 | 1.0 | 0.02 | 0.82 | 0.82 | 100 | 1009.5 | |
| 20260507014517 | 40 | 0.0 | 2.0 | 0.02 | 0.82 | 0.82 | 100 | 1009.5 | |
| 20260507014017 | 40 | 315 | 1.0 | 2.0 | 0.02 | 0.82 | 0.82 | 100 | 1009.4 |
| 20260507013537 | 40 | 293 | 1.0 | 1.0 | 0.02 | 0.82 | 0.82 | 100 | 1009.3 |
| 20260507013017 | 40 | 293 | 1.0 | 2.0 | 0.02 | 0.82 | 0.82 | 100 | 1009.2 |
| 20260507012517 | 40 | 0.0 | 1.0 | 0.03 | 0.82 | 0.82 | 100 | 1009.1 | |
| 20260507012017 | 40 | 315 | 2.0 | 5.0 | 0.03 | 0.82 | 0.82 | 100 | 1009.2 |
| 20260507011517 | 40 | 0.0 | 2.0 | 0.02 | 0.81 | 0.81 | 100 | 1009.2 | |
| 20260507011017 | 40 | 315 | 1.0 | 3.0 | 0.03 | 0.81 | 0.81 | 100 | 1009.2 |
| 20260507010517 | 40 | 338 | 1.0 | 5.0 | 0.03 | 0.81 | 0.81 | 100 | 1009.2 |
| 20260507010017 | 40 | 293 | 1.0 | 2.0 | 0.02 | 0.80 | 0.80 | 100 | 1009.1 |
| 20260507005517 | 40 | 315 | 2.0 | 4.0 | 0.02 | 0.80 | 0.80 | 100 | 1009.2 |